Tiempo atmosférico en la estación meteorológica de Logroño Aeropuerto, La Rioja (353 m.)



Fecha
DESCASC
Temp. máxima en grados centígrados (hora)
DESCASC
Temp. mínima en grados centígrados (hora)
DESCASC
Temp. media en grados centígrados
DESCASC
Racha de viento máxima en m/sg (hora)
DESCASC
Velocidad máxima media en intervalos de 10 minutos(hora)
DESCASC
Precipitaciones diarias en mm
DESCASC
Precipitaciones de 00:00 a 06:00 en mm
DESCASC
Precipitaciones de 06:00 a 12:00 en mm
DESCASC
Precipitaciones de 12:00 a 18:00 en mm
DESCASC
Precipitaciones de 18:00 a 24:00 en mm
DESCASC
19-09-2019 27.3 (16:00) 15 (08:10) 21.1 4.72 (10:40) 3.06 (19:10) 0 0 0 0 0
18-09-2019 23.5 (17:10) 16.5 (07:50) 20 9.72 (03:20) 5.28 (03:20) 7.9 7.8 0.1 0 0
17-09-2019 30.7 (17:20) 18.1 (00:00) 24.4 4.72 (10:20) 3.33 (10:50) 0 0 0 0 0
16-09-2019 27.8 (17:00) 16.7 (00:00) 22.3 8.89 (16:20) 6.67 (15:30) 7.5 7.5 0 0 0
15-09-2019 26.6 (13:10) 15 (00:00) 20.8 -- (--) -- (--) 13.3 0 0.6 3.8 8.9
14-09-2019 29.1 (16:10) 15.4 (00:00) 22.3 11.39 (17:10) 8.61 (14:30) 0 0 0 0 0
13-09-2019 28.2 (14:50) 14.4 (00:00) 21.3 11.39 (15:30) 8.61 (15:40) 0 0 0 0 0
12-09-2019 29.6 (18:00) 12.3 (00:00) 21 6.11 (01:40) 3.61 (17:10) 0 0 0 0 0
11-09-2019 23.7 (14:50) 15 (00:00) 19.4 8.89 (12:00) 5.56 (13:10) 0 0 0 0 0
10-09-2019 17.7 (14:30) 12.1 (10:20) 14.9 12.5 (11:50) 7.22 (11:30) 1.6 0 0.5 1.1 0
09-09-2019 24.8 (16:40) 8 (07:10) 16.4 6.67 (18:30) 3.33 (18:40) 0 0 0 0 0
08-09-2019 24.5 (16:30) 13.5 (00:00) 19 7.78 (16:20) 4.17 (17:40) 0 0 0 0 0
07-09-2019 25.2 (16:00) 12 (00:00) 18.6 7.78 (12:20) 4.72 (11:50) 0 0 0 0 0
06-09-2019 22.5 (16:10) 13 (00:00) 17.8 9.72 (10:30) 4.72 (15:50) 0 0 0 0 0
05-09-2019 22.7 (15:20) 14.9 (00:00) 18.8 9.72 (08:40) 5 (04:30) 0 0 0 0 0
04-09-2019 27.4 (15:40) 12.3 (00:00) 19.8 9.72 (18:50) 4.72 (13:50) 0 0 0 0 0
03-09-2019 30.1 (17:50) 12.4 (00:00) 21.3 6.67 (10:10) 4.17 (10:10) 0 0 0 0 0
02-09-2019 24 (16:20) 15.6 (00:00) 19.8 9.17 (12:20) 4.17 (14:50) 0 0 0 0 0
01-09-2019 25.1 (13:40) 18.9 (00:00) 22 6.11 (13:30) 3.61 (13:40) 0 0 0 0 0
31-08-2019 35.4 (18:10) 17.3 (00:00) 26.4 6.11 (20:00) 4.17 (20:00) 0 0 0 0 0
30-08-2019 34.5 (17:40) 18.1 (00:00) 26.3 7.22 (14:40) 4.44 (21:40) 0 0 0 0 0
29-08-2019 33.2 (16:40) 17.5 (00:00) 25.4 7.22 (16:50) 4.44 (16:50) 0 0 0 0 0
28-08-2019 32.4 (18:00) 16 (00:00) 24.2 5.83 (18:00) 3.89 (19:20) 0 0 0 0 0
27-08-2019 28.8 (19:00) 16.5 (00:00) 22.6 6.67 (17:10) 3.61 (14:20) 2.7 2.7 0 0 0
26-08-2019 31.3 (15:20) 16.6 (00:00) 23.9 12.78 (15:10) 9.72 (14:40) 11.9 0 0 0 11.9
25-08-2019 34.7 (17:10) 15.3 (00:00) 25 11.39 (13:40) 8.89 (15:20) 0 0 0 0 0
24-08-2019 34.7 (17:50) 14 (00:00) 24.4 9.72 (03:30) 5.83 (16:50) 0 0 0 0 0
23-08-2019 33.8 (17:30) 10.9 (00:00) 22.3 7.78 (14:40) 5.28 (14:30) 0 0 0 0 0
22-08-2019 32 (18:00) 14.1 (00:00) 23.1 7.22 (12:30) 4.44 (12:30) 0 0 0 0 0
21-08-2019 29.2 (19:20) 13.2 (00:00) 21.2 7.22 (20:00) 3.61 (20:00) 0 0 0 0 0

Gráficas

Temp. máximas Temp. mínimas Temp. medias Precipitaciones Rachas de viento máximas Velocidades máximas media en intervalos de 10 minutos

Datos horarios

Fecha y hora oficial Temperatura (ºC) Velocidad del viento (km/h) Dirección del viento Racha (km/h) Dirección de racha Precipitación (mm) Presión (hPa) Tendencia (hPa) Humedad (%)
2019-09-19 23:00:00 19.6 0 Calma 11 Nordeste 0 974.9 1.5 84
2019-09-19 22:00:00 21.1 5 Norte 15 Sudeste 0 974.3 0.9 75
2019-09-19 21:00:00 22.4 6 Sudeste 11 Sudeste 0 973.7 0.4 71
2019-09-19 20:00:00 25.4 3 Sudeste 15 Sur 0 973.4 -0.4 51
2019-09-19 19:00:00 26.8 10 Sudeste 15 Sudeste 0 973.4 -0.8 45
2019-09-19 18:00:00 26.7 8 Sudeste 13 Sudeste 0 973.3 -1.7 46
2019-09-19 17:00:00 25.6 6 Sudeste 17 Este 0 973.8 -1.9 51
2019-09-19 16:00:00 27.2 8 Este 17 Sudeste 0 974.2 -2 45
2019-09-19 15:00:00 25.7 10 Este 17 Sudeste 0 975 -1.8 49
2019-09-19 14:00:00 24.5 3 Sur 9 Sudeste 0 975.7 -1.3 53
2019-09-19 13:00:00 22.9 4 Sudoeste 13 Sudoeste 0 976.2 -0.6 60
2019-09-19 12:00:00 21 8 Oeste 15 Oeste 0 976.8 0.2 69
2019-09-19 11:00:00 19.2 9 Oeste 17 Oeste 0 977 0.8 76
2019-09-19 10:00:00 17.4 8 Oeste 13 Oeste 0 976.8 0.8 84
2019-09-19 09:00:00 15.9 7 Oeste 11 Oeste 0 976.6 0.7 90
2019-09-19 08:00:00 15.1 3 Oeste 13 Oeste 0 976.2 0.2 92
2019-09-19 07:00:00 15.5 10 Oeste 13 Oeste 0 976 -0.2 91
2019-09-19 06:00:00 15.7 8 Oeste 13 Oeste 0 975.9 -0.6 92
2019-09-19 05:00:00 16.3 8 Oeste 13 Oeste 0 976 -0.5 91
2019-09-19 04:00:00 16.6 9 Oeste 13 Oeste 0 976.2 -0.2 90
2019-09-19 03:00:00 16.8 7 Oeste 11 Oeste 0 976.5 0 91
2019-09-19 02:00:00 17.4 6 Oeste 11 Oeste 0 976.5 0.1 89
2019-09-19 01:00:00 17.7 8 Oeste 11 Oeste 0 976.4 0.4 89
2019-09-19 00:00:00 17.9 8 Oeste 11 Sudoeste 0 976.5 1.1 89
2019-09-18 23:00:00 18.4 5 Oeste 11 Oeste 0 976.4 1.5 87
2019-09-18 22:00:00 19.5 7 Oeste 9 Oeste 0 976 1.3 81
2019-09-18 21:00:00 20.7 5 Oeste 13 Oeste 0 975.4 1.2 77
2019-09-18 20:00:00 21.4 8 Oeste 13 Oeste 0 974.9 0.7 74
2019-09-18 19:00:00 21.9 5 Noroeste 13 Oeste 0 974.7 -0.2 73
2019-09-18 18:00:00 22.1 9 Oeste 15 Oeste 0 974.2 -0.9 73
2019-09-18 17:00:00 22.9 10 Oeste 17 Oeste 0 974.2 -1.4 66
2019-09-18 16:00:00 22.2 9 Oeste 15 Oeste 0 974.9 -0.7 68
2019-09-18 15:00:00 21.1 9 Oeste 13 Oeste 0 975.1 -0.5 74
2019-09-18 14:00:00 20.7 7 Oeste 15 Oeste 0 975.6 -0.3 74
2019-09-18 13:00:00 19 7 Noroeste 15 Oeste 0 975.6 0.1 80
2019-09-18 12:00:00 19 3 Oeste 8 Sudoeste 0 975.6 1.1 82
2019-09-18 11:00:00 17.8 7 Oeste 11 Oeste 0.1 975.9 1.7 84
2019-09-18 10:00:00 17.1 8 Oeste 11 Oeste 0 975.5 1.8 87
2019-09-18 09:00:00 17 8 Sudoeste 13 Sudoeste 0 974.5 0.7 89
2019-09-18 08:00:00 16.5 8 Oeste 9 Oeste 0 974.2 0.3 91
2019-09-18 07:00:00 17.3 6 Oeste 15 Oeste 0 973.7 -0.6 87
2019-09-18 06:00:00 17.6 6 Oeste 21 Oeste 0 973.8 -0.8 86
2019-09-18 05:00:00 17.6 13 Oeste 24 Oeste 0 973.9 -1.2 86
2019-09-18 04:00:00 18.2 17 Oeste 35 Sudoeste 0.1 974.3 0.3 88
2019-09-18 03:00:00 18.6 14 Oeste 21 Oeste 4.1 974.6 0.7 88
2019-09-18 02:00:00 19.8 10 Sur 26 Sudeste 3.6 975.1 1.4 81
2019-09-18 01:00:00 19.6 0 Calma 8 Sudeste 0 974 0.9 91
2019-09-18 00:00:00 20.3 4 Sudoeste 8 Sudoeste 0 973.9 1.2 86
2019-09-17 23:00:00 20.8 2 Norte 9 Oeste 0 973.7 1.3 84
2019-09-17 22:00:00 22.2 8 Sudoeste 11 Sudoeste 0 973.1 0.7 77
2019-09-17 21:00:00 22.7 4 Este 11 Sudoeste 0 972.7 0.1 75
2019-09-15 18:00:00 20.4 6 Este 9 Este 0 978.8 -2.4 71
2019-09-15 17:00:00 19.8 2 Sur 13 Sur 0 979.5 -0.3 79
2019-09-15 16:00:00 17.5 4 Sudoeste 17 Oeste 2.5 980.2 0.5 87
2019-09-15 15:00:00 19.3 14 Sur 41 Sur 1.3 981.2 0.7 71
2019-09-15 14:00:00 24 14 Este 30 Este 0 979.8 -0.9 44
2019-09-15 13:00:00 25.9 17 Este 32 Este 0 979.7 -1.2 42
2019-09-15 12:00:00 24.2 22 Este 30 Este 0 980.5 -0.2 53
2019-09-15 11:00:00 21.5 13 Este 18 Este 0 980.7 -0.4 68
2019-09-15 10:00:00 19.5 8 Este 11 Este 0 980.9 0.6 73
2019-09-15 09:00:00 17 10 Este 15 Este 0.6 980.7 0.6 87
2019-09-15 08:00:00 16.6 11 Nordeste -- -- 0 981.1 0.6 79
2019-09-15 07:00:00 15.8 -- -- -- -- 0 980.3 -0.2 78
2019-09-15 06:00:00 15.5 4 Norte 11 Este 0 980.1 -0.7 77
2019-09-15 05:00:00 15.3 10 Este -- -- 0 980.5 -0.5 73
2019-09-15 04:00:00 16.4 7 Este 9 Este 0 980.5 -0.7 71
2019-09-15 03:00:00 16.4 8 Este 9 Nordeste 0 980.8 -0.5 71
2019-09-15 02:00:00 18 4 Este 11 Este 0 981 -0.1 70
2019-09-15 01:00:00 19.4 9 Este 11 Este 0 981.2 0.2 57
2019-09-15 00:00:00 19.1 9 Este 9 Este 0 981.3 0.3 59
2019-09-14 23:00:00 20.4 7 Este 8 Este 0 981.1 0.6 61
2019-09-14 22:00:00 21.8 0 Calma 17 Este 0 981 0.9 54
2019-09-14 21:00:00 24.7 11 Este 17 Este 0 981 0.8 40
2019-09-14 20:00:00 26.2 18 Este 30 Este 0 980.5 -0.1 37
2019-09-14 19:00:00 26.9 22 Este 35 Sudeste 0 980.1 -0.9 35
2019-09-14 18:00:00 28.5 26 Este 41 Sudeste 0 980.2 -1.4 30
2019-09-14 17:00:00 27.9 24 Este 33 Este 0 980.6 -1.5 31
2019-09-14 16:00:00 28.2 23 Este 39 Este 0 981 -2 31
2019-09-14 15:00:00 27.9 24 Este 39 Este 0 981.6 -2 33
2019-09-14 14:00:00 27 27 Este 37 Este 0 982.1 -2.1 35
2019-09-14 13:00:00 25.4 24 Este 32 Este 0 983 -1.3 45
2019-09-14 12:00:00 23.6 12 Nordeste 18 Nordeste 0 983.6 -0.7 56
2019-09-14 11:00:00 21 10 Este 15 Nordeste 0 984.2 0.3 68
2019-09-14 10:00:00 19.7 6 Este 11 Nordeste 0 984.3 0.4 72
2019-09-14 09:00:00 17.8 7 Sur 17 Sur 0 984.3 0.7 79
2019-09-14 08:00:00 16.3 10 Este 11 Sudeste 0 983.9 -0.1 85
2019-09-14 07:00:00 16.9 11 Este 13 Este 0 983.9 -0.4 81
2019-09-14 06:00:00 17.5 11 Este 18 Nordeste 0 983.6 -1 77
2019-09-14 05:00:00 17.9 13 Este 21 Este 0 984 -0.5 74
2019-09-14 04:00:00 17.7 12 Este 13 Este 0 984.3 -0.6 71
2019-09-14 03:00:00 16.9 2 Nordeste 5 Nordeste 0 984.6 -0.5 74
2019-09-14 02:00:00 16.8 0 Calma 4 Nordeste 0 984.5 -0.3 74
2019-09-14 01:00:00 17.4 0 Calma 9 Norte 0 984.9 0.6 75
2019-09-14 00:00:00 16.9 2 Noroeste 9 Norte 0 985.1 1 75
2019-09-13 23:00:00 18 0 Calma 5 Sudeste 0 984.8 0.8 72
2019-09-13 22:00:00 19.4 3 Este 9 Este 0 984.3 0.3 63
2019-09-13 21:00:00 20.8 2 Este 11 Norte 0 984.1 -0.1 54
2019-09-13 20:00:00 22.1 7 Este 17 Este 0 984 -0.4 49
2019-09-13 19:00:00 23.6 12 Este 32 Este 0 984 -0.5 42
2019-09-13 18:00:00 24.9 19 Este 33 Sudeste 0 984.2 -0.2 36
2019-09-13 17:00:00 25.9 22 Sudeste 37 Este 0 984.4 -0.3 31
2019-09-13 16:00:00 26.1 24 Este 41 Este 0 984.5 -0.4 32
2019-09-13 15:00:00 27.8 24 Este 35 Este 0 984.4 -1.8 26
2019-09-13 14:00:00 26.8 14 Este 26 Nordeste 0 984.7 -1.4 34
2019-09-13 13:00:00 25.2 5 Nordeste 13 Noroeste 0 984.9 -1.2 41
2019-09-13 12:00:00 22.6 5 Oeste 15 Oeste 0 986.2 0 54
2019-09-13 11:00:00 20.2 10 Oeste 21 Oeste 0 986.1 -0.3 62
2019-09-13 10:00:00 17.8 12 Oeste 18 Oeste 0 986.1 -0.2 71
2019-09-13 09:00:00 15.6 10 Oeste 13 Oeste 0 986.2 -0.5 79
2019-09-13 08:00:00 14.5 8 Oeste 13 Oeste 0 986.4 0.3 85
2019-09-13 07:00:00 14.6 9 Oeste 11 Oeste 0 986.3 0.1 86
2019-09-13 06:00:00 15.3 6 Sudoeste 11 Oeste 0 986.7 0.2 83
2019-09-13 05:00:00 16 7 Sudoeste 13 Oeste 0 986.1 -0.2 81
2019-09-13 04:00:00 16.1 8 Sudoeste 11 Oeste 0 986.2 0 80
2019-09-13 03:00:00 16.5 9 Oeste 11 Oeste 0 986.5 0.7 79
2019-09-13 02:00:00 16.6 8 Sudoeste 11 Oeste 0 986.3 0.6 73
2019-09-13 01:00:00 16.5 7 Oeste 9 Oeste 0 986.2 1 79
2019-09-13 00:00:00 17 6 Sudoeste 8 Sudoeste 0 985.8 1.2 76
2019-09-12 23:00:00 17.6 0 Calma 5 Noroeste 0 985.7 1.3 78
2019-09-12 22:00:00 19 0 Calma 15 Este 0 985.2 0.7 70
2019-09-12 21:00:00 20.5 3 Oeste 13 Oeste 0 984.6 0.2 63
2019-09-12 20:00:00 25.5 0 Calma 11 Nordeste 0 984.4 -0.2 43
2019-09-12 19:00:00 29.2 10 Este 17 Este 0 984.5 -0.7 25
2019-09-12 18:00:00 29.6 6 Este 18 Este 0 984.4 -1.8 25
2019-09-12 17:00:00 28.9 11 Este 21 Este 0 984.6 -2.6 27
2019-09-12 16:00:00 28.4 7 Este 18 Nordeste 0 985.2 -2.6 30
2019-09-12 15:00:00 26.5 7 Este 15 Este 0 986.2 -2.1 33
2019-09-12 14:00:00 24.2 6 Oeste 11 Oeste 0 987.2 -1.2 39
2019-09-12 13:00:00 22.4 4 Oeste 13 Oeste 0 987.8 -0.2 45
2019-09-12 12:00:00 20.3 10 Oeste 17 Oeste 0 988.3 0.4 54
2019-09-12 11:00:00 18.3 11 Oeste 18 Oeste 0 988.4 1.3 65
2019-09-12 10:00:00 15.9 12 Oeste 18 Sudoeste 0 988 1 75
2019-09-12 09:00:00 13.9 7 Oeste 13 Oeste 0 987.9 1.1 81
2019-09-12 08:00:00 12.3 11 Oeste 15 Oeste 0 987.1 0.3 86
2019-09-12 07:00:00 12.5 9 Oeste 13 Oeste 0 987 0.2 85
2019-09-12 06:00:00 12.8 8 Oeste 17 Sudoeste 0 986.8 -0.2 86
2019-09-12 05:00:00 13.3 11 Oeste 17 Oeste 0 986.8 -0.3 84
2019-09-12 04:00:00 14.1 11 Oeste 17 Oeste 0 986.8 -0.2 81
2019-09-12 03:00:00 14.1 8 Oeste 18 Oeste 0 987 -0.1 80
2019-09-12 02:00:00 14.7 12 Oeste 22 Oeste 0 987.1 0.1 76
2019-09-12 01:00:00 15.3 13 Oeste 18 Oeste 0 987 1.1 74
2019-09-12 00:00:00 16 11 Oeste 17 Sudoeste 0 987.1 2.3 69
2019-09-11 23:00:00 16 10 Oeste 13 Sudoeste 0 987 2.8 66
2019-09-11 22:00:00 16.6 4 Sudoeste 13 Noroeste 0 985.9 2 63
2019-09-11 21:00:00 17.9 7 Oeste 15 Noroeste 0 984.8 1.3 58
2019-09-11 20:00:00 20.1 10 Noroeste 30 Noroeste 0 984.2 1.1 49
2019-09-11 19:00:00 22 10 Noroeste 24 Noroeste 0 983.9 0.9 42
2019-09-11 18:00:00 22.8 12 Noroeste 30 Oeste 0 983.5 0.3 39
2019-09-11 17:00:00 22.8 17 Oeste 30 Oeste 0 983.1 -0.5 40
2019-09-11 16:00:00 23.3 11 Noroeste 28 Noroeste 0 983 -0.8 37
2019-09-11 15:00:00 23.6 11 Noroeste 26 Norte 0 983.2 -0.3 36
2019-09-11 14:00:00 22.6 16 Norte 28 Norte 0 983.6 0.4 37
2019-09-11 13:00:00 22.2 17 Norte 30 Norte 0 983.8 1.3 39
2019-09-11 12:00:00 21.5 16 Norte 32 Norte 0 983.5 1.5 42
2019-09-11 11:00:00 18.9 11 Oeste 21 Oeste 0 983.2 1.9 57
2019-09-11 10:00:00 19.3 13 Oeste 22 Oeste 0 982.5 1.9 55
2019-09-11 09:00:00 17.3 10 Oeste 18 Oeste 0 982 1.7 62
2019-09-11 08:00:00 16.3 11 Oeste 18 Oeste 0 981.3 1.9 68
2019-09-11 07:00:00 16.2 10 Oeste 21 Sudoeste 0 980.6 1 69
2019-09-11 06:00:00 15.9 15 Oeste 26 Sudoeste 0 980.3 0.4 71
2019-09-11 05:00:00 15 13 Oeste 21 Oeste 0 979.4 -0.3 76
2019-09-11 04:00:00 15.3 14 Oeste 22 Sudoeste 0 979.6 -0.2 74
2019-09-11 03:00:00 15.9 13 Oeste 18 Oeste 0 979.9 0.6 69
2019-09-11 02:00:00 15.6 9 Oeste 24 Oeste 0 979.7 0.5 67
2019-09-11 01:00:00 15.5 9 Oeste 26 Oeste 0 979.8 1 64
2019-09-11 00:00:00 15.3 12 Oeste 28 Oeste 0 979.3 1.9 67
2019-09-10 23:00:00 15.5 17 Oeste 32 Oeste 0 979.2 2.8 65
2019-09-10 22:00:00 15.4 16 Noroeste 33 Noroeste 0 978.8 3.6 62
2019-09-10 21:00:00 15.5 14 Oeste 28 Noroeste 0 977.4 2.9 64
2019-09-10 20:00:00 15.8 16 Oeste 33 Oeste 0 976.4 2.5 65
2019-09-10 19:00:00 17.1 14 Oeste 30 Oeste 0 975.2 1.3 63
2019-09-10 18:00:00 15.7 14 Oeste 30 Noroeste 0 974.5 0.8 73
2019-09-10 17:00:00 14.8 15 Oeste 26 Oeste 0.2 973.9 0.1 81
2019-09-10 16:00:00 14.4 15 Oeste 35 Oeste 0.9 973.9 0.2 85
2019-09-10 15:00:00 16.7 15 Oeste 35 Noroeste 0 973.7 0 62
2019-09-10 14:00:00 16.9 21 Oeste 39 Oeste 0 973.8 -0.1 60
2019-09-10 13:00:00 15.7 14 Oeste 37 Sudoeste 0 973.7 -0.3 63
2019-09-10 12:00:00 14.6 19 Oeste 45 Oeste 0 973.7 0.1 67
2019-09-10 11:00:00 13.4 21 Oeste 33 Oeste 0.3 973.9 0.7 76
2019-09-10 10:00:00 12.6 14 Oeste 32 Sudoeste 0.2 974 0.8 76
2019-09-10 09:00:00 13.2 17 Oeste 37 Oeste 0 973.6 0.6 63
2019-09-10 08:00:00 12.9 17 Oeste 28 Oeste 0 973.2 0.2 69
2019-09-10 07:00:00 13.4 13 Oeste 30 Oeste 0 973.2 0.4 68
2019-09-10 06:00:00 13.2 10 Oeste 30 Oeste 0 973 -0.1 73
2019-09-10 05:00:00 13.2 17 Sudoeste 26 Oeste 0 973 0 78
2019-09-10 04:00:00 14 16 Oeste 35 Noroeste 0 972.8 -0.3 67
2019-09-10 03:00:00 16.2 17 Oeste 32 Oeste 0 973.1 0.1 62
2019-09-10 02:00:00 17.4 10 Oeste 22 Oeste 0 973 0.1 61
2019-09-10 01:00:00 17.5 9 Oeste 21 Oeste 0 973.1 0.6 60
2019-09-10 00:00:00 17.5 6 Oeste 13 Oeste 0 973 1.3 60
2019-09-09 23:00:00 17.6 3 Oeste 9 Noroeste 0 972.9 1.8 58
2019-09-09 22:00:00 18.3 5 Noroeste 18 Norte 0 972.5 1.6 54
2019-09-09 21:00:00 19.1 3 Sur 15 Sudoeste 0 971.7 1.1 54
2019-09-09 20:00:00 20 5 Sudoeste 21 Norte 0 971.1 0.2 53
2019-09-09 19:00:00 21.6 10 Noroeste 24 Noroeste 0 970.9 -0.7 49
2019-09-09 18:00:00 23.8 5 Noroeste 18 Noroeste 0 970.6 -1.9 40
2019-09-09 17:00:00 24.2 3 Oeste 13 Este 0 970.9 -2.6 37
2019-09-09 16:00:00 24.3 5 Norte 17 Este 0 971.6 -3 32
2019-09-09 15:00:00 23.4 6 Nordeste 11 Este 0 972.5 -2.7 34
2019-09-09 14:00:00 21.8 4 Noroeste 11 Noroeste 0 973.5 -2.1 36
2019-09-09 13:00:00 20.3 7 Oeste 11 Oeste 0 974.6 -1.3 45
2019-09-09 12:00:00 18.1 5 Oeste 9 Noroeste 0 975.2 -1 52
2019-09-09 11:00:00 16 5 Oeste 11 Oeste 0 975.6 0.1 64
2019-09-09 10:00:00 13.4 5 Oeste 11 Oeste 0 975.9 0.5 73
2019-09-09 09:00:00 11 4 Oeste 8 Oeste 0 976.2 0.5 83
2019-09-09 08:00:00 9.1 0 Calma 5 Sudoeste 0 975.5 -1.2 91
2019-09-09 07:00:00 8.1 2 Nordeste 8 Oeste 0 975.4 -1.8 89
2019-09-09 06:00:00 9.9 5 Oeste 9 Sudoeste 0 975.7 -1.7 89
2019-09-09 05:00:00 10 6 Oeste 9 Oeste 0 976.7 -0.9 89
2019-09-09 04:00:00 10.6 4 Oeste 5 Oeste 0 977.2 -0.7 89
2019-09-09 03:00:00 11.3 4 Oeste 8 Sudoeste 0 977.4 -0.6 84
2019-09-09 02:00:00 12 0 Calma 9 Sudoeste 0 977.6 -0.4 81
2019-09-09 01:00:00 13.7 7 Sudoeste 11 Sudoeste 0 977.9 0.3 69
2019-09-09 00:00:00 15 2 Oeste 13 Oeste 0 978 1 66
2019-09-08 23:00:00 15.2 7 Oeste 11 Oeste 0 978 1.4 68
2019-09-08 22:00:00 17 6 Oeste 17 Oeste 0 977.6 1.5 59
2019-09-08 21:00:00 18.9 5 Sudoeste 17 Oeste 0 977 1 51
2019-09-08 20:00:00 21.2 9 Noroeste 21 Norte 0 976.6 0.3 43
2019-09-08 19:00:00 22.9 11 Noroeste 24 Norte 0 976.1 -0.8 39
2019-09-08 18:00:00 24 14 Norte 24 Norte 0 976 -1.5 34
2019-09-08 17:00:00 24.3 9 Noroeste 28 Norte 0 976.3 -1.5 34
2019-09-08 16:00:00 23.7 9 Noroeste 21 Norte 0 976.9 -1.3 39
2019-09-08 15:00:00 22.3 10 Oeste 18 Oeste 0 977.5 -1.2 46
2019-09-08 14:00:00 21.6 8 Noroeste 21 Oeste 0 977.8 -1.3 49
2019-09-08 13:00:00 21.2 11 Oeste 18 Oeste 0 978.2 -1.1 54
2019-09-08 12:00:00 20.1 9 Oeste 21 Oeste 0 978.7 -0.4 57
2019-09-08 11:00:00 19 12 Sudoeste 21 Oeste 0 979.1 0 59
2019-09-08 10:00:00 17.6 10 Oeste 17 Oeste 0 979.3 0.5 63
2019-09-08 09:00:00 16.9 11 Oeste 18 Oeste 0 979.1 0.4 64
2019-09-08 08:00:00 15.3 10 Oeste 15 Sudoeste 0 979.1 0.2 68
2019-09-08 07:00:00 14.7 8 Oeste 13 Sudoeste 0 978.8 -0.4 72
2019-09-08 06:00:00 14.5 8 Oeste 18 Oeste 0 978.7 -0.9 73
2019-09-08 05:00:00 13.6 9 Oeste 13 Sudoeste 0 978.9 -0.8 76
2019-09-08 04:00:00 14.3 5 Oeste 17 Oeste 0 979.2 -0.9 76
2019-09-08 03:00:00 15.2 8 Oeste 21 Sudoeste 0 979.6 -0.7 72
2019-09-08 02:00:00 15.3 11 Oeste 17 Oeste 0 979.7 -0.5 72
2019-09-08 01:00:00 15.3 9 Oeste 13 Oeste 0 980.1 0.5 71
2019-09-08 00:00:00 15.9 5 Oeste 11 Oeste 0 980.3 1.4 67
2019-09-07 23:00:00 15.9 7 Oeste 13 Oeste 0 980.2 1.8 70
2019-09-07 22:00:00 16.9 9 Oeste 15 Noroeste 0 979.6 1.6 63
2019-09-07 21:00:00 18.9 5 Oeste 17 Oeste 0 978.9 0.9 54
2019-09-07 20:00:00 21.5 10 Noroeste 21 Noroeste 0 978.4 0.4 45
2019-09-07 19:00:00 23.5 10 Noroeste 22 Oeste 0 978 -0.3 40
2019-09-07 18:00:00 24.4 10 Noroeste 26 Oeste 0 978 -1.2 35
2019-09-07 17:00:00 24.9 12 Oeste 24 Norte 0 978 -1.9 29
2019-09-07 16:00:00 25.1 9 Sudeste 26 Sur 0 978.3 -2.3 30
2019-09-07 15:00:00 23.8 9 Oeste 22 Oeste 0 979.2 -2.2 35
2019-09-07 14:00:00 22.1 13 Oeste 28 Sudoeste 0 979.9 -2 40
2019-09-07 13:00:00 20.3 15 Oeste 28 Sudoeste 0 980.6 -1.5 45
2019-09-07 12:00:00 19 12 Oeste 26 Sudoeste 0 981.4 -0.7 51
2019-09-07 11:00:00 17.3 16 Oeste 24 Oeste 0 981.9 0 56
2019-09-07 10:00:00 15.9 15 Oeste 24 Oeste 0 982.1 0.5 64
2019-09-07 09:00:00 13.8 11 Oeste 18 Oeste 0 982.1 0.5 74
2019-09-07 08:00:00 12.1 13 Oeste 21 Oeste 0 981.9 -0.1 78
2019-09-07 07:00:00 12.3 10 Oeste 21 Oeste 0 981.6 -0.6 78
2019-09-07 06:00:00 12.5 13 Oeste 18 Oeste 0 981.6 -0.9 77
2019-09-07 05:00:00 12.7 12 Oeste 21 Oeste 0 982 -0.8 76
2019-09-07 04:00:00 13 12 Oeste 18 Oeste 0 982.2 -0.7 74
2019-09-07 03:00:00 13.5 13 Oeste 21 Sudoeste 0 982.5 -0.4 72
2019-09-07 02:00:00 13.4 10 Oeste 22 Oeste 0 982.8 -0.1 70
2019-09-07 01:00:00 13.7 10 Oeste 18 Oeste 0 982.9 0.3 67
2019-09-07 00:00:00 14.4 10 Oeste 15 Oeste 0 982.9 1.3 65
2019-09-06 23:00:00 14.7 9 Oeste 17 Oeste 0 982.9 1.8 63
2019-09-06 22:00:00 15.3 8 Oeste 15 Noroeste 0 982.6 1.9 59
2019-09-06 21:00:00 16.3 9 Noroeste 28 Noroeste 0 981.6 1.1 53
2019-09-06 20:00:00 18.2 12 Noroeste 30 Oeste 0 981.1 0.7 47
2019-09-06 19:00:00 20.2 15 Noroeste 32 Oeste 0 980.7 0.2 38
2019-09-06 18:00:00 21.2 12 Noroeste 28 Noroeste 0 980.5 -0.3 36
2019-09-06 17:00:00 21.7 16 Oeste 35 Oeste 0 980.4 -0.8 35
2019-09-06 16:00:00 22.2 13 Noroeste 26 Noroeste 0 980.5 -1 33
2019-09-06 15:00:00 22.1 12 Noroeste 30 Norte 0 980.8 -1.2 34
2019-09-06 14:00:00 21.2 13 Noroeste 30 Noroeste 0 981.2 -1.2 37
2019-09-06 13:00:00 21 13 Noroeste 26 Norte 0 981.5 -0.9 36
2019-09-06 12:00:00 19.7 10 Oeste 22 Noroeste 0 982 -0.3 44
2019-09-06 11:00:00 18 10 Noroeste 35 Oeste 0 982.4 0.4 53
2019-09-06 10:00:00 16.8 12 Oeste 21 Oeste 0 982.4 0.6 60
2019-09-06 09:00:00 15.6 10 Oeste 18 Oeste 0 982.3 0.3 65
2019-09-06 08:00:00 14.1 11 Oeste 17 Oeste 0 982 -0.4 72
2019-09-06 07:00:00 14.6 11 Oeste 18 Oeste 0 981.8 -0.8 71
2019-09-06 06:00:00 14.6 12 Oeste 21 Oeste 0 982 -0.6 71
2019-09-06 05:00:00 14.4 10 Oeste 18 Oeste 0 982.4 -0.5 72
2019-09-06 04:00:00 13.1 9 Oeste 15 Oeste 0 982.6 -0.6 78
2019-09-06 03:00:00 13.8 9 Oeste 17 Oeste 0 982.6 -0.7 73
2019-09-06 02:00:00 14.6 12 Oeste 18 Oeste 0 982.9 -0.3 68
2019-09-06 01:00:00 15 11 Oeste 18 Oeste 0 983.2 -0.1 68
2019-09-06 00:00:00 14.9 7 Oeste 13 Oeste 0 983.3 0.4 64
2019-09-05 23:00:00 15.4 9 Oeste 13 Oeste 0 983.2 0.6 61
2019-09-05 22:00:00 16.2 9 Oeste 18 Noroeste 0 983.3 0.9 59
2019-09-05 21:00:00 17.3 8 Noroeste 15 Noroeste 0 982.9 0.5 53
2019-09-05 20:00:00 18.5 9 Noroeste 21 Oeste 0 982.6 0.6 50
2019-09-05 19:00:00 18.9 9 Noroeste 30 Norte 0 982.4 0.3 51
2019-09-05 18:00:00 20.1 16 Norte 33 Norte 0 982.4 0.2 51
2019-09-05 17:00:00 21.3 14 Noroeste 32 Oeste 0 982 -0.7 48
2019-09-05 16:00:00 22.3 13 Noroeste 28 Norte 0 982.1 -1 43
2019-09-05 15:00:00 21.9 12 Noroeste 24 Norte 0 982.2 -1.3 39
2019-09-05 14:00:00 21.7 17 Norte 28 Norte 0 982.7 -0.9 36
2019-09-05 13:00:00 19.7 10 Oeste 26 Noroeste 0 983.1 0.2 45
2019-09-05 12:00:00 19.4 11 Oeste 24 Noroeste 0 983.5 0.5 50
2019-09-05 11:00:00 17.8 13 Oeste 22 Oeste 0 983.6 1 59
2019-09-05 10:00:00 17.9 15 Oeste 28 Oeste 0 982.9 1 51
2019-09-05 09:00:00 17 16 Oeste 35 Oeste 0 983 1.7 63
2019-09-05 08:00:00 15.7 7 Oeste 21 Oeste 0 982.6 1.6 72
2019-09-05 07:00:00 16 9 Oeste 17 Oeste 0 981.9 0.9 81
2019-09-05 06:00:00 17.1 14 Oeste 26 Oeste 0 981.3 -0.2 70
2019-09-05 05:00:00 17.2 13 Oeste 26 Oeste 0 981 -0.5 66
2019-09-05 04:00:00 17 15 Oeste 24 Oeste 0 981 -0.7 65
2019-09-05 03:00:00 16.4 10 Oeste 17 Oeste 0 981.5 -0.2 70
2019-09-05 02:00:00 16.1 9 Oeste 22 Oeste 0 981.5 0 73
2019-09-05 01:00:00 17.4 10 Oeste 26 Oeste 0 981.7 0.7 67
2019-09-05 00:00:00 17.6 8 Oeste 28 Noroeste 0 981.7 1.5 63
2019-09-04 23:00:00 18.2 12 Oeste 26 Oeste 0 981.5 2 61
2019-09-04 22:00:00 18.9 11 Noroeste 28 Oeste 0 981 1.9 62
2019-09-04 21:00:00 20 11 Noroeste 30 Norte 0 980.2 1.7 60
2019-09-04 20:00:00 22 13 Noroeste 32 Norte 0 979.5 1.2 53
2019-09-04 19:00:00 23.9 14 Noroeste 35 Oeste 0 979.1 0.7 45
2019-09-04 18:00:00 25.5 13 Noroeste 30 Norte 0 978.5 0 42
2019-09-04 17:00:00 26.5 13 Noroeste 30 Noroeste 0 978.3 -0.2 38
2019-09-04 16:00:00 27.2 10 Noroeste 22 Noroeste 0 978.4 -0.6 37
2019-09-04 15:00:00 26.8 14 Oeste 30 Oeste 0 978.5 -0.9 36
2019-09-04 14:00:00 25.6 15 Oeste 24 Oeste 0 978.5 -1.2 36
2019-09-04 13:00:00 24.2 15 Oeste 22 Oeste 0 979 -0.6 38
2019-09-04 12:00:00 22 13 Oeste 22 Oeste 0 979.4 -0.3 44
2019-09-04 11:00:00 19.4 13 Oeste 22 Oeste 0 979.7 0.2 53
2019-09-04 10:00:00 16.7 11 Oeste 18 Oeste 0 979.6 0.5 63
2019-09-04 09:00:00 14.5 13 Oeste 17 Sudoeste 0 979.7 0.6 71
2019-09-04 08:00:00 12.5 9 Oeste 13 Oeste 0 979.5 0.5 79
2019-09-04 07:00:00 12.6 5 Oeste 9 Oeste 0 979.1 -0.1 82
2019-09-04 06:00:00 13.3 7 Oeste 9 Oeste 0 979.1 -0.4 80
2019-09-04 05:00:00 13 6 Oeste 9 Oeste 0 979 -0.5 85
2019-09-04 04:00:00 13.7 6 Oeste -- -- 0 979.2 -0.3 84
2019-09-04 03:00:00 15.3 3 Oeste -- -- -- 979.5 -0.1 73
2019-09-04 02:00:00 15.9 9 Oeste 15 Oeste 0 979.5 -0.2 68
2019-09-04 01:00:00 15.7 5 Noroeste 8 Oeste 0 979.5 0.3 79
2019-09-04 00:00:00 16.9 4 Sudoeste 5 Sudoeste 0 979.6 1.2 74
2019-09-03 23:00:00 18.4 4 Oeste 8 Sudoeste 0 979.7 2 67
2019-09-03 22:00:00 21.1 0 Calma 11 Sudeste 0 979.2 1.7 54
2019-09-03 21:00:00 22.9 7 Oeste 9 Sudoeste 0 978.4 0.8 47
2019-09-03 20:00:00 27.3 6 Oeste 18 Noroeste 0 977.7 -0.4 31
2019-09-03 19:00:00 29 8 Oeste 15 Oeste 0 977.5 -1.3 28
2019-09-03 18:00:00 29.9 6 Oeste 18 Oeste 0 977.6 -2 27
2019-09-03 17:00:00 29 7 Oeste 18 Oeste 0 978.1 -2.1 28
2019-09-03 16:00:00 27.9 9 Oeste 18 Sudoeste 0 978.8 -2.2 31
2019-09-03 15:00:00 26.6 10 Oeste 22 Oeste 0 979.6 -1.9 32
2019-09-03 14:00:00 24.8 12 Oeste 21 Oeste 0 980.2 -1.6 35
2019-09-03 13:00:00 23.2 11 Oeste 21 Sudoeste 0 981 -1.1 40
2019-09-03 12:00:00 21.3 12 Oeste 18 Oeste 0 981.5 -0.6 47
2019-09-03 11:00:00 19.2 10 Oeste 24 Oeste 0 981.8 -0.1 58
2019-09-03 10:00:00 16.3 13 Oeste 18 Oeste 0 982.1 0.6 66
2019-09-03 09:00:00 13.9 11 Oeste 17 Oeste 0 982.1 0.6 73
2019-09-03 08:00:00 12.4 9 Oeste 18 Oeste 0 981.9 0.3 76
2019-09-03 07:00:00 12.6 12 Oeste 18 Sudoeste 0 981.5 -0.4 78
2019-09-03 06:00:00 12.9 12 Oeste 17 Oeste 0 981.5 -0.6 78
2019-09-03 05:00:00 13.5 11 Oeste 17 Oeste 0 981.6 -0.8 74
2019-09-03 04:00:00 13.7 11 Oeste 17 Oeste 0 981.9 -0.5 73
2019-09-03 03:00:00 14.2 9 Oeste 15 Oeste 0 982.1 -0.3 71
2019-09-03 02:00:00 15 10 Oeste 15 Sudoeste 0 982.4 0 67
2019-09-03 01:00:00 15.8 10 Oeste 15 Oeste 0 982.4 0.8 65
2019-09-03 00:00:00 15.6 7 Oeste 13 Oeste 0 982.4 1.6 68
2019-09-02 23:00:00 16.4 8 Oeste 11 Oeste 0 982.4 2.5 64
2019-09-02 22:00:00 17.4 4 Oeste 11 Noroeste 0 981.6 1.9 61
2019-09-02 21:00:00 19.1 8 Noroeste 21 Noroeste 0 980.8 1.3 50
2019-09-02 20:00:00 21.7 12 Noroeste 21 Norte 0 979.9 0.1 42
2019-09-02 19:00:00 22.9 11 Noroeste 24 Norte 0 979.7 -0.4 42
2019-09-02 18:00:00 23.8 10 Noroeste 24 Noroeste 0 979.5 -0.9 38
2019-09-02 17:00:00 23.7 10 Oeste 24 Noroeste 0 979.8 -1.1 39
2019-09-02 16:00:00 23.6 9 Noroeste 28 Noroeste 0 980.1 -1.2 38
2019-09-02 15:00:00 22.7 12 Oeste 30 Oeste 0 980.4 -1.3 42
2019-09-02 14:00:00 22.1 13 Oeste 26 Oeste 0 980.9 -1.2 39
2019-09-02 13:00:00 21.6 11 Noroeste 33 Oeste 0 981.3 -0.5 41
2019-09-02 12:00:00 20.5 11 Oeste 22 Noroeste 0 981.7 0.5 43
2019-09-02 11:00:00 19.3 14 Noroeste 28 Noroeste 0 982.1 1.3 48
2019-09-02 10:00:00 18.2 13 Noroeste 26 Oeste 0 981.8 1.5 54
2019-09-02 09:00:00 16.9 10 Oeste 18 Noroeste 0 981.2 1.1 59
2019-09-02 08:00:00 15.7 8 Oeste 17 Oeste 0 980.8 1 66
2019-09-02 07:00:00 16.2 9 Oeste 22 Noroeste 0 980.3 0.7 64
2019-09-02 06:00:00 15.9 11 Noroeste 24 Oeste 0 980.1 0.4 66
2019-09-02 05:00:00 16.4 10 Oeste 21 Oeste 0 979.8 0.2 65
2019-09-02 04:00:00 16.4 11 Oeste 26 Oeste 0 979.6 0.3 69
2019-09-02 03:00:00 16.7 13 Oeste 24 Oeste 0 979.7 0.6 72
2019-09-02 02:00:00 18 11 Oeste 24 Noroeste 0 979.6 0.4 67
2019-09-02 01:00:00 18.7 10 Oeste 22 Oeste 0 979.3 0.6 70
2019-09-02 00:00:00 18.9 5 Oeste 11 Oeste 0 979.1 1.8 73
2019-09-01 23:00:00 19.5 7 Noroeste 17 Noroeste 0 979.2 3.2 71
2019-09-01 22:00:00 20 7 Oeste 17 Noroeste 0 978.7 3.4 71
2019-09-01 21:00:00 21.6 10 Oeste 21 Norte 0 977.3 2.2 63
2019-09-01 20:00:00 22.9 8 Noroeste 21 Noroeste 0 976 0.9 56
2019-09-01 19:00:00 23.4 7 Noroeste 17 Noroeste 0 975.3 0.1 55
2019-09-01 18:00:00 23.3 8 Noroeste 21 Noroeste 0 975.1 -0.1 55
2019-09-01 17:00:00 23.6 10 Noroeste 18 Noroeste 0 975.1 -0.3 55
2019-09-01 16:00:00 23.8 11 Noroeste 18 Noroeste 0 975.2 -0.7 55
2019-09-01 15:00:00 24.8 12 Oeste 18 Noroeste 0 975.2 -0.7 52
2019-09-01 14:00:00 24.2 10 Oeste 22 Oeste 0 975.4 -0.5 55
2019-09-01 13:00:00 23.9 11 Oeste 17 Sur 0 975.9 0.3 54
2019-09-01 12:00:00 22.7 8 Oeste 15 Sudoeste 0 975.9 0.7 60
2019-09-01 11:00:00 21.6 8 Oeste 15 Oeste 0 975.9 1.2 64
2019-09-01 10:00:00 20.9 8 Oeste 13 Oeste 0 975.6 1.2 67
2019-09-01 09:00:00 20.7 4 Oeste 13 Oeste 0 975.2 1.1 70
2019-09-01 08:00:00 20.7 8 Oeste 11 Oeste 0 974.7 0.3 73
2019-09-01 07:00:00 20.7 7 Oeste 11 Oeste 0 974.4 -0.6 76
2019-09-01 06:00:00 20.7 5 Oeste 9 Noroeste 0 974.1 -1.4 77
2019-09-01 05:00:00 20.9 5 Oeste 9 Sudoeste 0 974.4 -1.4 75
2019-09-01 04:00:00 21 6 Oeste 13 Oeste 0 975 -0.6 74
2019-09-01 03:00:00 21.2 4 Oeste 18 Noroeste 0 975.5 0.1 73
2019-09-01 02:00:00 21.1 11 Oeste 18 Oeste 0 975.8 0.6 73
2019-09-01 01:00:00 21.3 12 Oeste 17 Oeste 0 975.6 0.8 74
2019-09-01 00:00:00 21.5 12 Oeste 21 Oeste 0 975.4 1.3 73
2019-08-31 23:00:00 22.2 10 Oeste 17 Oeste 0 975.2 3.4 71
2019-08-31 22:00:00 22.7 10 Sudoeste 15 Sudoeste 0 974.8 4.1 69
2019-08-31 21:00:00 24.6 12 Oeste 21 Oeste 0 974.1 3.5 62
2019-08-31 20:00:00 29.7 15 Norte 22 Norte 0 971.8 0.6 44
2019-08-31 19:00:00 34.3 12 Nordeste 15 Nordeste 0 970.7 -1.5 24
2019-08-31 18:00:00 35.2 7 Sudeste 18 Este 0 970.6 -2.5 21
2019-08-31 17:00:00 34.4 11 Nordeste 17 Este 0 971.2 -2.5 24
2019-08-31 16:00:00 33.9 8 Norte 15 Norte 0 972.2 -2.2 25
2019-08-31 15:00:00 33 5 Sudeste 13 Este 0 973.1 -1.7 29
2019-08-31 14:00:00 31.1 8 Nordeste 15 Nordeste 0 973.7 -1.4 33
2019-08-31 13:00:00 29.6 5 Este 13 Este 0 974.4 -0.8 35
2019-08-31 12:00:00 27.6 6 Norte 13 Este 0 974.8 -0.4 45
2019-08-31 11:00:00 25.6 6 Nordeste 11 Este 0 975.1 0.2 51
2019-08-31 10:00:00 22.3 3 Oeste 8 Oeste 0 975.2 0.5 66
2019-08-31 09:00:00 19.2 3 Oeste 5 Oeste 0 975.2 0.6 80
2019-08-31 08:00:00 17.3 2 Oeste 8 Oeste 0 974.9 0 87
2019-08-31 07:00:00 17.9 5 Sudoeste 8 Sudoeste 0 974.7 -0.3 87
2019-08-31 06:00:00 18.2 3 Oeste 8 Oeste 0 974.6 -0.4 88
2019-08-31 05:00:00 18.9 3 Oeste 5 Oeste 0 974.9 -0.4 86
2019-08-31 04:00:00 19.7 0 Calma 5 Noroeste 0 975 -0.5 79
2019-08-31 03:00:00 21.7 3 Oeste 13 Sudoeste 0 975 -0.4 68
2019-08-31 02:00:00 22 6 Sudoeste 15 Sudeste 0 975.3 0 64
2019-08-31 01:00:00 22.1 3 Este 11 Oeste 0 975.5 0.7 67
2019-08-31 00:00:00 23.6 4 Sur 9 Sudoeste 0 975.4 1.1 64
2019-08-30 23:00:00 25.1 5 Nordeste 17 Sur 0 975.3 1.2 54
2019-08-30 22:00:00 29.6 14 Sur 22 Sur 0 974.8 0.7 33
2019-08-30 21:00:00 30.1 8 Sudeste 21 Sudeste 0 974.3 -0.3 35
2019-08-30 20:00:00 32.9 9 Sudeste 18 Sudeste 0 974.1 -1 27
2019-08-30 19:00:00 34.2 11 Nordeste 17 Nordeste 0 974.1 -1.8 27
2019-08-30 18:00:00 34.2 6 Este 15 Este 0 974.6 -2.2 27
2019-08-30 17:00:00 33.6 9 Nordeste 18 Este 0 975.1 -2.5 29
2019-08-30 16:00:00 32.8 8 Este 21 Sudeste 0 975.9 -2.6 32
2019-08-30 15:00:00 31 12 Este 26 Nordeste 0 976.8 -2.1 38
2019-08-30 14:00:00 29.2 10 Este 18 Este 0 977.6 -1.6 46
2019-08-30 13:00:00 27.2 8 Nordeste 17 Este 0 978.5 -0.7 53
2019-08-30 12:00:00 26.1 3 Noroeste 11 Este 0 978.9 -0.4 58
2019-08-30 11:00:00 23.4 6 Oeste 13 Oeste 0 979.2 0.1 68
2019-08-30 10:00:00 21.6 7 Oeste 11 Oeste 0 979.2 0.4 74
2019-08-30 09:00:00 19.9 3 Oeste 5 Oeste 0 979.3 0.8 79
2019-08-30 08:00:00 18.2 5 Sudoeste 8 Sudoeste 0 979.1 0.6 87
2019-08-30 07:00:00 18.3 6 Oeste 9 Oeste 0 978.8 0.1 88
2019-08-30 06:00:00 19.3 7 Oeste 11 Oeste 0 978.5 -0.2 86
2019-08-30 05:00:00 19.7 8 Oeste 13 Oeste 0 978.5 -0.3 84
2019-08-30 04:00:00 20.2 7 Oeste 17 Sudoeste 0 978.7 0.2 82
2019-08-30 03:00:00 21 10 Oeste 15 Sudoeste 0 978.7 0.5 79
2019-08-30 02:00:00 21.7 10 Oeste 15 Sudoeste 0 978.8 1.5 76
2019-08-30 01:00:00 22.4 9 Oeste 13 Oeste 0 978.5 2 75
2019-08-30 00:00:00 23.6 4 Noroeste 13 Este 0 978.2 2.4 75
2019-08-29 23:00:00 25.2 9 Este 15 Este 0 977.3 1.8 63
2019-08-29 22:00:00 24.6 9 Nordeste 21 Nordeste 0 976.5 1.2 66
2019-08-29 21:00:00 27.9 2 Sudeste 13 Este 0 975.8 0.4 59
2019-08-29 20:00:00 31.6 11 Este 13 Este 0 975.5 -0.3 39
2019-08-29 19:00:00 32.2 9 Sudeste 18 Este 0 975.3 -0.8 33
2019-08-29 18:00:00 32.2 13 Este 18 Este 0 975.4 -1.1 35
2019-08-29 17:00:00 32.7 13 Sudeste 26 Este 0 975.8 -1.3 32
2019-08-29 16:00:00 32.4 14 Este 24 Este 0 976.1 -1.5 33
2019-08-29 15:00:00 30.9 14 Este 24 Este 0 976.5 -1.4 40
2019-08-29 14:00:00 29.3 14 Este 21 Este 0 977.1 -1.1 44
2019-08-29 13:00:00 27.5 13 Nordeste 21 Nordeste 0 977.6 -0.7 51
2019-08-29 12:00:00 25.8 9 Este 17 Este 0 977.9 -0.4 58
2019-08-29 11:00:00 23.9 6 Nordeste 11 Este 0 978.2 0.4 65
2019-08-29 10:00:00 21.7 2 Noroeste 8 Oeste 0 978.3 0.8 73
2019-08-29 09:00:00 19.5 0 Calma 5 Oeste 0 978.3 1.1 82
2019-08-29 08:00:00 17.7 0 Calma 4 Oeste 0 977.8 0.7 91
2019-08-29 07:00:00 18 -- -- -- -- 0 977.5 0.4 91
2019-08-29 06:00:00 18.8 3 Sudoeste 8 Sudoeste 0 977.2 0.2 89
2019-08-29 05:00:00 19.2 6 Sudoeste 8 Oeste 0 977.1 0.1 88
2019-08-29 04:00:00 20.1 6 Sudoeste 11 Oeste 0 977.1 0.1 84
2019-08-29 03:00:00 20.6 10 Oeste 13 Oeste 0 977 0.5 82
2019-08-29 02:00:00 20.7 5 Oeste 11 Oeste 0 977 1.3 84
2019-08-29 01:00:00 21.8 9 Oeste 13 Oeste 0 977 2.2 77
2019-08-29 00:00:00 23 7 Este 15 Este 0 976.5 2.8 73
2019-08-28 23:00:00 23.9 13 Este 17 Este 0 975.7 2.3 68
2019-08-28 22:00:00 25.1 13 Este 15 Este 0 974.8 1.5 61
2019-08-28 21:00:00 26.6 5 Este 15 Este 0 973.7 0.3 60
2019-08-28 20:00:00 31.1 14 Este 18 Este 0 973.4 -0.3 33
2019-08-28 19:00:00 31.9 12 Este 17 Este 0 973.3 -0.8 29
2019-08-28 18:00:00 32.3 10 Este 21 Este 0 973.4 -1.3 28
2019-08-28 17:00:00 32 5 Nordeste 15 Sudeste 0 973.7 -1.6 30
2019-08-28 16:00:00 31.2 5 Sudeste 15 Nordeste 0 974.1 -1.5 32
2019-08-28 15:00:00 29.5 5 Norte 13 Este 0 974.7 -1.2 35
2019-08-28 14:00:00 27.5 8 Nordeste 15 Nordeste 0 975.3 -1 46
2019-08-28 13:00:00 25.9 6 Norte 13 Norte 0 975.6 -0.8 53
2019-08-28 12:00:00 24.6 6 Norte 13 Norte 0 975.9 -0.6 61
2019-08-28 11:00:00 21.9 7 Oeste 13 Oeste 0 976.3 -0.1 71
2019-08-28 10:00:00 20 6 Oeste 9 Oeste 0 976.4 0.2 77
2019-08-28 09:00:00 17.8 3 Oeste 5 Oeste 0 976.5 0.7 86
2019-08-28 08:00:00 16.1 0 Calma 4 Oeste 0 976.4 0.7 94
2019-08-28 07:00:00 16.3 0 Calma 5 Sudoeste 0 976.2 0.6 93
2019-08-28 06:00:00 16.7 3 Sudoeste 5 Oeste 0 975.8 0.2 94
2019-08-28 05:00:00 17 0 Calma 8 Oeste 0 975.7 -0.2 93
2019-08-28 04:00:00 17.6 4 Este 8 Sudoeste 0 975.6 -0.1 92
2019-08-28 03:00:00 18.4 3 Oeste 4 Oeste 0 975.6 -0.1 93
2019-08-28 02:00:00 19 0 Calma 8 Oeste 0 975.9 0.3 89
2019-08-28 01:00:00 19.5 4 Noroeste 5 Noroeste 0 975.7 0.4 88
2019-08-28 00:00:00 21.9 6 Sudeste 11 Sur 0 975.7 1.6 72
2019-08-27 23:00:00 22 7 Sudeste 11 Este 0 975.6 2.3 71
2019-08-27 22:00:00 22.7 9 Este 15 Este 0 975.3 2.2 68
2019-08-27 21:00:00 22.9 4 Norte 9 Norte 0 974.1 0.8 64
2019-08-27 20:00:00 28.2 3 Este 15 Este 0 973.3 -0.2 42
2019-08-27 19:00:00 28.7 5 Este 15 Este 0 973.1 -0.7 36
2019-08-27 18:00:00 28.4 9 Este 24 Este 0 973.3 -1.1 37
2019-08-27 17:00:00 27.9 9 Este 21 Nordeste 0 973.5 -1.7 42
2019-08-27 16:00:00 26.8 12 Nordeste 22 Nordeste 0 973.8 -1.6 48
2019-08-27 15:00:00 25.8 13 Este 22 Este 0 974.4 -1.1 53
2019-08-27 14:00:00 24 10 Este 18 Este 0 975.2 -0.5 60
2019-08-27 13:00:00 23.6 8 Nordeste 13 Nordeste 0 975.4 0.2 61
2019-08-27 12:00:00 20.9 7 Sudoeste 11 Sudoeste 0 975.5 0.6 73
2019-08-27 11:00:00 18.6 7 Oeste 9 Oeste 0 975.7 1.5 87
2019-08-27 10:00:00 17.5 6 Oeste 11 Oeste 0 975.2 1.5 92
2019-08-27 09:00:00 17.3 4 Oeste 9 Noroeste 0 974.9 1.1 93
2019-08-27 08:00:00 16.8 4 Oeste 5 Oeste 0 974.2 0.6 94
2019-08-27 07:00:00 16.8 0 Calma 11 Este 0 973.7 -0.4 94
2019-08-27 06:00:00 17.1 9 Este 13 Este 0 973.8 -0.6 93
2019-08-27 05:00:00 17.3 8 Nordeste -- -- 0 973.6 -1.8 93
2019-08-27 04:00:00 17.9 5 Nordeste 11 Sudeste 0 974.1 -1 92
2019-08-27 03:00:00 18 3 Sudeste 9 Sudeste 1.3 974.4 -1 92
2019-08-27 02:00:00 18.1 0 Calma 11 Sudoeste 0.7 975.4 0.9 89
2019-08-27 01:00:00 18.1 3 Noroeste 11 Oeste 0.7 975.1 -0.9 89
2019-08-27 00:00:00 18.4 7 Noroeste 26 Sudoeste 0.9 975.4 2.2 87
2019-08-26 23:00:00 18.2 9 Sudoeste 18 Oeste 2.4 974.5 3.2 85
2019-08-26 22:00:00 18.1 9 Norte 28 Sudeste 4.5 976 4.9 88
2019-08-26 21:00:00 17.8 19 Oeste 37 Oeste 4.1 973.2 1.7 83
2019-08-26 20:00:00 27.6 15 Este 35 Este 0 971.3 -0.5 42
2019-08-26 19:00:00 28.6 26 Este 41 Este 0 971.1 -1.1 36
2019-08-26 18:00:00 29.5 23 Este 45 Este 0 971.5 -1.3 32
2019-08-26 17:00:00 30.8 32 Este 45 Este 0 971.8 -1.6 31
2019-08-26 16:00:00 29.1 26 Este 46 Nordeste 0 972.2 -1.5 29
2019-08-26 15:00:00 30.8 33 Este 45 Este 0 972.8 -2.3 27
2019-08-26 14:00:00 29.9 33 Este 42 Este 0 973.4 -2 31
2019-08-26 13:00:00 27.5 22 Este 32 Este 0 973.7 -1.1 40
2019-08-26 12:00:00 24.3 19 Este 26 Este 0 975.1 0.8 52
2019-08-26 11:00:00 22.8 14 Este 18 Este 0 975.4 1.3 58
2019-08-26 10:00:00 19.5 4 Noroeste 5 Noroeste 0 974.8 0.7 79
2019-08-26 09:00:00 18 0 Calma 5 Nordeste 0 974.3 0.1 83
2019-08-26 08:00:00 16.7 5 Este 5 Este 0 974.1 -0.3 87
2019-08-26 07:00:00 17.1 0 Calma 5 Norte 0 974.1 -0.6 88
2019-08-26 06:00:00 17.7 0 Calma 4 Oeste 0 974.2 -0.4 86
2019-08-26 05:00:00 18.5 0 Calma 8 Norte 0 974.4 -0.4 82
2019-08-26 04:00:00 19.2 3 Oeste 8 Sudoeste 0 974.7 0 84
2019-08-26 03:00:00 19.8 6 Oeste 11 Oeste 0 974.6 0.2 82
2019-08-26 02:00:00 20.7 8 Oeste 15 Oeste 0 974.8 0.9 77
2019-08-26 01:00:00 21.2 10 Oeste 18 Oeste 0 974.7 1.6 74
2019-08-26 00:00:00 22.5 12 Oeste 17 Oeste 0 974.4 2.4 67
2019-08-25 23:00:00 25.3 8 Sudoeste 17 Nordeste 0 973.9 2.5 53
2019-08-25 22:00:00 27.2 10 Nordeste 22 Nordeste 0 973.1 1.5 44
2019-08-25 21:00:00 28.2 9 Este 30 Este 0 972 0.1 27
2019-08-25 20:00:00 32.8 22 Este 35 Este 0 971.4 -1 18
2019-08-25 19:00:00 34 26 Este 41 Este 0 971.6 -1.1 18
2019-08-25 18:00:00 34.5 27 Este 39 Este 0 971.9 -1.3 19
2019-08-25 17:00:00 34.4 28 Este 39 Nordeste 0 972.4 -1.6 22
2019-08-25 16:00:00 34.1 31 Este 41 Este 0 972.7 -1.8 24
2019-08-25 15:00:00 33.2 27 Este 37 Este 0 973.2 -2.4 27
2019-08-25 14:00:00 31.3 27 Este 41 Este 0 974 -2 30
2019-08-25 13:00:00 29.5 30 Este 37 Este 0 974.5 -1.6 34
2019-08-25 12:00:00 27.7 26 Este 35 Este 0 975.6 -0.6 41
2019-08-25 11:00:00 25.2 19 Este 28 Nordeste 0 976 0.1 48
2019-08-25 10:00:00 22.9 8 Este 11 Este 0 976.1 0.5 54
2019-08-25 09:00:00 18.5 0 Calma 4 Oeste 0 976.2 0.7 70
2019-08-25 08:00:00 15.8 2 Noroeste 5 Noroeste 0 975.9 0.5 83
2019-08-25 07:00:00 15.8 0 Calma 8 Oeste 0 975.6 0.5 79
2019-08-25 06:00:00 16.9 8 Oeste 9 Oeste 0 975.5 0.5 71
2019-08-25 05:00:00 16.9 2 Sudoeste 8 Sudoeste 0 975.4 0.5 75
2019-08-25 04:00:00 17.3 6 Oeste 8 Oeste 0 975.1 0.4 76
2019-08-25 03:00:00 18.1 0 Calma 5 Sudoeste 0 975 0.4 74
2019-08-25 02:00:00 19 2 Noroeste 5 Norte 0 974.9 0.4 71
2019-08-25 01:00:00 20.3 3 Norte 5 Norte 0 974.7 0.7 61
2019-08-25 00:00:00 21.7 0 Calma 4 Este 0 974.6 0.9 60
2019-08-24 23:00:00 23.4 0 Calma 8 Nordeste 0 974.5 1.1 47
2019-08-24 22:00:00 26 4 Este 11 Este 0 974 0.2 31
2019-08-24 21:00:00 30.7 9 Este 24 Este 0 973.7 -0.4 20
2019-08-24 20:00:00 33.2 18 Este 28 Este 0 973.4 -0.9 17
2019-08-24 19:00:00 34.3 17 Este 28 Este 0 973.8 -0.9 16
2019-08-24 18:00:00 34.6 19 Este 28 Este 0 974.1 -1.4 18
2019-08-24 17:00:00 34.1 19 Este 28 Este 0 974.3 -1.9 22
2019-08-24 16:00:00 33.8 17 Este 30 Este 0 974.7 -2 23
2019-08-24 15:00:00 32.6 15 Este 32 Este 0 975.5 -1.7 26
2019-08-24 14:00:00 30.8 19 Este 28 Este 0 976.2 -1.2 30
2019-08-24 13:00:00 28.7 17 Este 28 Este 0 976.7 -0.9 39
2019-08-24 12:00:00 26.9 18 Este 28 Nordeste 0 977.2 -0.2 45
2019-08-24 11:00:00 24.5 15 Este 21 Este 0 977.4 0.3 52
2019-08-24 10:00:00 22.8 10 Este 17 Este 0 977.6 0.8 54
2019-08-24 09:00:00 17.8 3 Oeste 5 Oeste 0 977.4 0.8 68
2019-08-24 08:00:00 14.8 0 Calma 5 Oeste 0 977.1 0.5 85
2019-08-24 07:00:00 14.4 0 Calma 5 Norte 0 976.8 0.2 82
2019-08-24 06:00:00 14.5 0 Calma 4 Oeste 0 976.6 0.1 77
2019-08-24 05:00:00 15.7 0 Calma 4 Noroeste 0 976.6 0.1 79
2019-08-24 04:00:00 16.6 2 Oeste 35 Oeste 0 976.6 0.5 80
2019-08-24 03:00:00 17.7 0 Calma 5 Norte 0 976.5 0.6 77
2019-08-24 02:00:00 18.6 0 Calma 8 Sudeste 0 976.5 1 74
2019-08-24 01:00:00 19.8 0 Calma 5 Nordeste 0 976.1 1 71
2019-08-24 00:00:00 21.3 3 Este 8 Norte 0 975.9 1.5 55
2019-08-23 23:00:00 22.8 2 Nordeste 11 Norte 0 975.5 1.2 50
2019-08-23 22:00:00 24 3 Este 9 Este 0 975.1 0.6 51
2019-08-23 21:00:00 28.6 9 Este 21 Este 0 974.4 -0.5 31
2019-08-23 20:00:00 32.3 12 Este 21 Este 0 974.3 -1.1 23
2019-08-23 19:00:00 33.3 11 Este 21 Este 0 974.5 -1.3 18
2019-08-23 18:00:00 33.5 13 Este 21 Este 0 974.9 -1.9 17
2019-08-23 17:00:00 33 11 Nordeste 21 Este 0 975.4 -2.2 19
2019-08-23 16:00:00 31.9 12 Nordeste 24 Nordeste 0 975.8 -2.5 26
2019-08-23 15:00:00 30.5 15 Este 28 Este 0 976.8 -1.9 27
2019-08-23 14:00:00 28.8 16 Este 24 Este 0 977.6 -1.5 30
2019-08-23 13:00:00 26.5 13 Este 22 Este 0 978.3 -1.1 36
2019-08-23 12:00:00 24.4 13 Este 21 Este 0 978.7 -0.8 42
2019-08-23 11:00:00 21.7 6 Este 9 Este 0 979.1 -0.1 48
2019-08-23 10:00:00 18 5 Oeste 8 Oeste 0 979.4 0.5 61
2019-08-23 09:00:00 14.8 4 Oeste 8 Sudoeste 0 979.5 0.8 70
2019-08-23 08:00:00 12.1 5 Sudoeste 8 Sudoeste 0 979.2 0.5 82
2019-08-23 07:00:00 11.8 0 Calma 9 Oeste 0 978.9 -0.2 83
2019-08-23 06:00:00 12.2 3 Sudoeste 9 Oeste 0 978.7 -0.1 83
2019-08-23 05:00:00 12.8 0 Calma 5 Nordeste 0 978.7 -0.3 86
2019-08-23 04:00:00 13.8 0 Calma 8 Sudoeste 0 979.1 0.1 81
2019-08-23 03:00:00 14.4 0 Calma 4 Oeste 0 978.8 -0.2 79
2019-08-23 02:00:00 15.5 0 Calma 9 Oeste 0 979 0.2 78
2019-08-23 01:00:00 17 5 Oeste 8 Oeste 0 979 0.7 75
2019-08-23 00:00:00 18.5 4 Norte 11 Este 0 979 1.5 67
2019-08-22 23:00:00 20.5 10 Este 15 Este 0 978.8 2 50
2019-08-22 22:00:00 23.5 9 Este 13 Este 0 978.3 1.6 39
2019-08-22 21:00:00 25.7 7 Este 13 Norte 0 977.5 0.5 33
2019-08-22 20:00:00 28.9 5 Noroeste 15 Oeste 0 976.8 -0.8 28
2019-08-22 19:00:00 30.4 11 Oeste 21 Oeste 0 976.7 -1.5 21
2019-08-22 18:00:00 31.8 6 Oeste 17 Oeste 0 977 -2 16
2019-08-22 17:00:00 30.9 9 Sudoeste 17 Oeste 0 977.6 -2 17
2019-08-22 16:00:00 29.9 13 Oeste 22 Oeste 0 978.2 -2.1 22
2019-08-22 15:00:00 28.4 14 Oeste 22 Sudoeste 0 979 -1.9 25
2019-08-22 14:00:00 26.7 12 Oeste 21 Oeste 0 979.6 -1.6 29
2019-08-22 13:00:00 25.2 14 Oeste 26 Oeste 0 980.3 -0.9 31
2019-08-22 12:00:00 22.9 14 Oeste 24 Oeste 0 980.9 -0.4 44
2019-08-22 11:00:00 20.7 10 Oeste 21 Oeste 0 981.2 0.3 57
2019-08-22 10:00:00 18.1 13 Oeste 18 Oeste 0 981.2 0.8 66
2019-08-22 09:00:00 15.9 13 Oeste 21 Oeste 0 981.3 1.2 73
2019-08-22 08:00:00 14.4 11 Oeste 18 Oeste 0 980.9 0.8 79
2019-08-22 07:00:00 14.2 11 Oeste 18 Oeste 0 980.4 0.4 81
2019-08-22 06:00:00 14.6 10 Oeste 15 Oeste 0 980.1 0 80
2019-08-22 05:00:00 15.1 10 Oeste 15 Oeste 0 980.1 -0.4 78
2019-08-22 04:00:00 15.9 8 Oeste 15 Oeste 0 980 -0.7 77
2019-08-22 03:00:00 16.3 9 Oeste 13 Oeste 0 980.1 -0.4 79
2019-08-22 02:00:00 17.2 8 Oeste 15 Oeste 0 980.5 0.6 77
2019-08-22 01:00:00 19.2 8 Oeste 17 Oeste 0 980.7 1.5 63
2019-08-22 00:00:00 19 6 Oeste 11 Oeste 0 980.5 2.7 74
2019-08-21 23:00:00 21 10 Oeste 18 Oeste 0 979.9 2.9 65
2019-08-21 22:00:00 23 10 Sur 21 Noroeste 0 979.2 2.5 55
2019-08-21 21:00:00 24.3 8 Noroeste 21 Norte 0 977.8 1.4 50
2019-08-21 20:00:00 27.6 13 Norte 26 Norte 0 977 0.3 39
2019-08-21 19:00:00 28.7 4 Oeste 11 Oeste 0 976.7 -0.7 36
2019-08-21 18:00:00 27.5 5 Oeste 9 Oeste 0 976.4 -1.7 40
2019-08-21 17:00:00 27.1 5 Oeste 9 Oeste 0 976.7 -1.9 40
2019-08-21 16:00:00 26.1 7 Oeste 11 Oeste 0 977.4 -1.9 42
2019-08-21 15:00:00 25.4 4 Oeste 11 Oeste 0 978.1 -1.8 41
2019-08-21 14:00:00 24.1 7 Oeste 11 Oeste 0 978.6 -1.7 46
2019-08-21 13:00:00 22.6 6 Oeste 13 Oeste 0 979.3 -1.1 50
2019-08-21 12:00:00 20.7 5 Oeste 13 Oeste 0 979.9 -0.6 56
2019-08-21 11:00:00 18.6 7 Oeste 13 Oeste 0 980.3 -0.1 68
2019-08-21 10:00:00 16.7 8 Oeste 13 Oeste 0 980.4 0.1 75
2019-08-21 09:00:00 16 8 Oeste 11 Oeste 0 980.5 0.1 77
2019-08-21 08:00:00 13.9 6 Oeste 8 Oeste 0 980.4 -0.3 85
2019-08-21 07:00:00 14 5 Oeste -- -- 0 980.3 -0.6 84
2019-08-21 06:00:00 14.2 7 Oeste 9 Oeste 0 980.4 -0.7 83
2019-08-21 05:00:00 14.3 4 Oeste 8 Oeste 0 980.7 -0.7 81
2019-08-21 04:00:00 13.4 6 Oeste 8 Oeste 0 980.9 -0.7 89
2019-08-21 03:00:00 13.6 5 Oeste 5 Oeste 0 981.1 -0.6 88
2019-08-21 02:00:00 14.6 3 Sudoeste 5 Oeste 0 981.4 -0.1 85
2019-08-21 01:00:00 15.1 0 Calma 9 Sudoeste 0 981.6 0.6 77
2019-08-21 00:00:00 16.7 6 Sudoeste 11 Sudoeste 0 981.7 1 71